createdAt,value
2018-01-27T00:02:18.858Z,23.93
2018-01-27T00:04:48.189Z,24.30
2018-01-27T00:07:17.448Z,23.50
2018-01-27T00:09:46.666Z,23.87
2018-01-27T00:12:16.652Z,22.37
2018-01-27T00:14:46.099Z,23.67
2018-01-27T00:17:15.403Z,23.97
2018-01-27T00:19:44.607Z,22.90
2018-01-27T00:22:13.834Z,22.53
2018-01-27T00:24:43.058Z,23.30
2018-01-27T00:27:12.285Z,23.00
2018-01-27T00:29:42.259Z,21.90
2018-01-27T00:32:11.590Z,22.90
2018-01-27T00:34:41.622Z,24.20
2018-01-27T00:37:10.866Z,23.23
2018-01-27T00:39:40.118Z,22.20
2018-01-27T00:42:09.422Z,22.97
2018-01-27T00:44:38.651Z,22.17
2018-01-27T00:47:07.871Z,22.37
2018-01-27T00:49:37.282Z,22.13
2018-01-27T00:52:06.487Z,22.27
2018-01-27T00:54:35.698Z,22.17
2018-01-27T00:57:04.944Z,22.73
2018-01-27T00:59:34.138Z,22.30
2018-01-27T01:02:03.426Z,24.07
2018-01-27T01:04:32.651Z,22.50
2018-01-27T01:07:01.886Z,23.33
2018-01-27T01:09:31.996Z,22.20
2018-01-27T01:12:01.307Z,21.43
2018-01-27T01:14:31.476Z,22.23
2018-01-27T01:17:00.677Z,23.63
2018-01-27T01:19:29.923Z,24.07
2018-01-27T01:21:59.888Z,24.90
2018-01-27T01:24:29.441Z,23.10
2018-01-27T01:26:59.419Z,21.43
2018-01-27T01:29:30.176Z,19.33
2018-01-27T01:31:59.377Z,22.10
2018-01-27T01:34:29.363Z,22.13
2018-01-27T01:36:58.671Z,21.90
2018-01-27T01:39:28.046Z,22.73
2018-01-27T01:41:57.269Z,21.63
2018-01-27T01:44:26.538Z,21.27
2018-01-27T01:46:55.758Z,22.60
2018-01-27T01:49:24.961Z,21.40
2018-01-27T01:51:54.197Z,23.07
2018-01-27T01:54:24.263Z,21.43
2018-01-27T01:56:53.509Z,22.60
2018-01-27T01:59:22.707Z,22.30
2018-01-27T02:01:52.704Z,22.40
2018-01-27T02:04:22.872Z,22.23
2018-01-27T02:06:52.120Z,23.33
2018-01-27T02:09:21.389Z,22.67
2018-01-27T02:11:50.625Z,24.17
2018-01-27T02:14:20.602Z,23.93
2018-01-27T02:16:49.942Z,21.30
2018-01-27T02:19:19.122Z,23.20
2018-01-27T02:21:48.357Z,23.17
2018-01-27T02:24:17.616Z,22.57
2018-01-27T02:26:46.798Z,22.30
2018-01-27T02:29:16.262Z,23.47
2018-01-27T02:31:45.578Z,24.00
2018-01-27T02:34:14.940Z,25.17
2018-01-27T02:36:44.932Z,23.20
2018-01-27T02:39:14.213Z,21.50
2018-01-27T02:41:43.601Z,21.80
2018-01-27T02:44:12.839Z,23.80
2018-01-27T02:46:42.087Z,22.53
2018-01-27T02:49:11.427Z,22.43
2018-01-27T02:51:40.652Z,22.83
2018-01-27T02:54:10.626Z,23.10
2018-01-27T02:56:39.839Z,22.80
2018-01-27T02:59:09.822Z,24.83
2018-01-27T03:01:39.019Z,23.30
2018-01-27T03:04:08.447Z,23.43
2018-01-27T03:06:37.755Z,23.50
2018-01-27T03:09:07.025Z,22.00
2018-01-27T03:11:36.255Z,23.03
2018-01-27T03:14:05.445Z,22.57
2018-01-27T03:16:34.681Z,24.00
2018-01-27T03:19:04.668Z,22.00
2018-01-27T03:21:34.019Z,22.70
2018-01-27T03:24:03.262Z,24.63
2018-01-27T03:26:32.530Z,23.00
2018-01-27T03:29:01.826Z,23.23
2018-01-27T03:31:31.022Z,22.23
2018-01-27T03:34:00.994Z,25.87
2018-01-27T03:36:30.268Z,23.83
2018-01-27T03:39:00.317Z,22.50
2018-01-27T03:41:30.527Z,24.10
2018-01-27T03:43:59.758Z,23.00
2018-01-27T03:46:28.959Z,22.20
2018-01-27T03:48:58.372Z,22.60
2018-01-27T03:51:27.805Z,23.20
2018-01-27T03:53:57.015Z,22.87
2018-01-27T03:56:26.239Z,22.27
2018-01-27T03:58:56.190Z,23.50
2018-01-27T04:01:25.450Z,23.70
2018-01-27T04:03:54.633Z,22.30
2018-01-27T04:06:23.830Z,24.50
2018-01-27T04:08:53.039Z,23.30
2018-01-27T04:11:22.322Z,22.93
2018-01-27T04:13:51.523Z,23.27
2018-01-27T04:16:20.746Z,22.57
2018-01-27T04:18:50.002Z,22.97
2018-01-27T04:21:19.679Z,23.67
2018-01-27T04:23:48.872Z,22.43
2018-01-27T04:26:18.133Z,25.17
2018-01-27T04:28:48.102Z,25.97
2018-01-27T04:31:17.356Z,25.43
2018-01-27T04:33:47.417Z,22.20
2018-01-27T04:36:16.611Z,22.10
2018-01-27T04:38:45.829Z,23.50
2018-01-27T04:41:15.045Z,23.17
2018-01-27T04:43:45.045Z,24.17
2018-01-27T04:46:14.286Z,25.00
2018-01-27T04:48:43.586Z,23.80
2018-01-27T04:51:13.585Z,24.83
2018-01-27T04:53:43.773Z,24.93
2018-01-27T04:56:12.977Z,24.40
2018-01-27T04:58:42.242Z,25.33
2018-01-27T05:01:11.501Z,23.63
2018-01-27T05:03:41.635Z,25.27
2018-01-27T05:06:10.830Z,25.60
2018-01-27T05:08:40.839Z,25.27
2018-01-27T05:11:10.835Z,24.77
2018-01-27T05:13:40.030Z,25.87
2018-01-27T05:16:10.194Z,25.03
2018-01-27T05:18:39.411Z,25.10
2018-01-27T05:21:09.633Z,26.50
2018-01-27T05:23:38.846Z,26.43
2018-01-27T05:26:08.233Z,24.67
2018-01-27T05:28:37.466Z,25.50
2018-01-27T05:31:06.698Z,26.80
2018-01-27T05:33:36.163Z,26.90
2018-01-27T05:36:05.359Z,25.63
2018-01-27T05:38:34.673Z,27.37
2018-01-27T05:41:03.857Z,26.47
2018-01-27T05:43:33.074Z,27.20
2018-01-27T05:46:03.050Z,27.10
2018-01-27T05:48:32.430Z,28.63
2018-01-27T05:51:01.633Z,28.37
2018-01-27T05:53:30.858Z,29.40
2018-01-27T05:56:00.112Z,28.47
2018-01-27T05:58:29.322Z,28.20
2018-01-27T06:00:58.534Z,30.17
2018-01-27T06:03:27.790Z,30.00
2018-01-27T06:05:57.014Z,26.30
2018-01-27T06:08:26.248Z,27.57
2018-01-27T06:10:56.439Z,30.00
2018-01-27T06:13:25.649Z,26.43
2018-01-27T06:15:54.870Z,27.33
2018-01-27T06:18:25.619Z,27.23
2018-01-27T06:20:55.782Z,28.23
2018-01-27T06:23:24.982Z,28.83
2018-01-27T06:25:54.251Z,25.97
2018-01-27T06:28:24.253Z,26.70
2018-01-27T06:30:54.270Z,28.77
2018-01-27T06:33:23.432Z,27.03
2018-01-27T06:35:52.767Z,26.73
2018-01-27T06:38:21.968Z,27.17
2018-01-27T06:40:51.941Z,28.30
2018-01-27T06:43:21.173Z,26.20
2018-01-27T06:45:51.151Z,28.87
2018-01-27T06:48:20.375Z,28.33
2018-01-27T06:50:49.591Z,27.13
2018-01-27T06:53:18.853Z,28.50
2018-01-27T06:55:48.129Z,26.90
2018-01-27T06:58:17.350Z,28.40
2018-01-27T07:00:46.569Z,26.50
2018-01-27T07:03:15.750Z,29.10
2018-01-27T07:05:44.973Z,28.10
2018-01-27T07:08:14.229Z,27.90
2018-01-27T07:10:43.448Z,29.90
2018-01-27T07:13:13.429Z,26.60
2018-01-27T07:15:42.775Z,27.73
2018-01-27T07:18:12.023Z,29.30
2018-01-27T07:20:41.239Z,28.50
2018-01-27T07:23:10.850Z,28.10
2018-01-27T07:25:40.056Z,29.63
2018-01-27T07:28:09.274Z,30.00
2018-01-27T07:30:39.254Z,30.03
2018-01-27T07:33:08.468Z,29.33
2018-01-27T07:35:37.681Z,30.43
2018-01-27T07:38:06.912Z,29.13
2018-01-27T07:40:36.207Z,29.97
2018-01-27T07:43:05.418Z,29.20
2018-01-27T07:45:34.644Z,30.20
2018-01-27T07:48:03.866Z,29.30
2018-01-27T07:50:33.782Z,30.67
2018-01-27T07:53:03.099Z,29.97
2018-01-27T07:55:32.337Z,30.13
2018-01-27T07:58:01.548Z,29.20
2018-01-27T08:00:30.794Z,30.00
2018-01-27T08:03:00.778Z,29.20
2018-01-27T08:05:30.356Z,31.23
2018-01-27T08:07:59.566Z,29.00
2018-01-27T08:10:28.775Z,30.40
2018-01-27T08:12:57.991Z,31.80
2018-01-27T08:15:27.199Z,31.50
2018-01-27T08:17:56.538Z,28.70
2018-01-27T08:20:26.514Z,34.03
2018-01-27T08:22:57.237Z,31.37
2018-01-27T08:25:27.222Z,31.30
2018-01-27T08:27:56.513Z,32.17
2018-01-27T08:30:25.761Z,31.53
2018-01-27T08:32:54.987Z,32.00
2018-01-27T08:35:24.197Z,33.80
2018-01-27T08:37:53.427Z,28.70
2018-01-27T08:40:24.198Z,28.77
2018-01-27T08:42:54.225Z,28.07
2018-01-27T08:45:23.495Z,28.40
2018-01-27T08:47:53.466Z,28.17
2018-01-27T08:50:22.804Z,27.60
2018-01-27T08:52:52.132Z,26.50
2018-01-27T08:55:21.414Z,27.27
2018-01-27T08:57:50.607Z,26.87
2018-01-27T09:00:19.827Z,26.63
2018-01-27T09:02:49.038Z,26.63
2018-01-27T09:05:18.342Z,25.77
2018-01-27T09:07:47.562Z,27.10
2018-01-27T09:10:16.860Z,27.17
2018-01-27T09:12:46.084Z,28.70
2018-01-27T09:15:16.810Z,27.13
2018-01-27T09:17:46.086Z,29.50
2018-01-27T09:20:15.303Z,26.57
2018-01-27T09:22:44.705Z,28.60
2018-01-27T09:25:15.000Z,28.30
2018-01-27T09:27:44.177Z,26.40
2018-01-27T09:30:14.206Z,27.57
2018-01-27T09:32:43.431Z,29.27
2018-01-27T09:35:12.703Z,28.03
2018-01-27T09:37:41.974Z,28.90
2018-01-27T09:40:11.179Z,27.80
2018-01-27T09:42:41.179Z,29.53
2018-01-27T09:45:10.666Z,26.63
2018-01-27T09:47:39.953Z,25.90
2018-01-27T09:50:09.171Z,24.73
2018-01-27T09:52:38.405Z,25.57
2018-01-27T09:55:07.672Z,27.50
2018-01-27T09:57:36.889Z,24.80
2018-01-27T10:00:09.356Z,24.13
2018-01-27T10:02:38.581Z,25.30
2018-01-27T10:05:07.854Z,23.13
2018-01-27T10:07:37.018Z,23.13
2018-01-27T10:10:06.239Z,24.80
2018-01-27T10:12:35.602Z,25.07
2018-01-27T10:15:04.818Z,26.30
2018-01-27T10:17:34.042Z,25.70
2018-01-27T10:20:04.093Z,27.20
2018-01-27T10:22:33.347Z,26.97
2018-01-27T10:25:02.700Z,27.80
2018-01-27T10:27:32.005Z,25.93
2018-01-27T10:30:01.224Z,26.23
2018-01-27T10:32:31.155Z,27.90
2018-01-27T10:35:00.364Z,26.53
2018-01-27T10:37:30.371Z,26.67
2018-01-27T10:40:00.394Z,29.83
2018-01-27T10:42:29.601Z,27.77
2018-01-27T10:44:59.586Z,27.10
2018-01-27T10:47:28.862Z,29.23
2018-01-27T10:49:58.127Z,28.60
2018-01-27T10:52:27.379Z,26.87
2018-01-27T10:54:56.615Z,25.90
2018-01-27T10:57:25.843Z,25.83
2018-01-27T10:59:55.081Z,25.90
2018-01-27T11:02:24.316Z,24.27
2018-01-27T11:04:54.676Z,23.57
2018-01-27T11:07:23.877Z,23.87
2018-01-27T11:09:53.116Z,24.90
2018-01-27T11:12:22.401Z,24.40
2018-01-27T11:14:51.615Z,23.50
2018-01-27T11:17:21.599Z,25.10
2018-01-27T11:19:50.843Z,23.67
2018-01-27T11:22:20.062Z,23.80
2018-01-27T11:24:49.288Z,23.47
2018-01-27T11:27:18.561Z,24.73
2018-01-27T11:29:48.566Z,23.83
2018-01-27T11:32:17.993Z,23.37
2018-01-27T11:34:47.191Z,22.07
2018-01-27T11:37:16.422Z,25.23
2018-01-27T11:39:45.715Z,20.00
2018-01-27T11:42:15.893Z,21.23
2018-01-27T11:44:45.984Z,22.33
2018-01-27T11:47:17.032Z,23.40
2018-01-27T11:49:47.076Z,21.67
2018-01-27T11:52:16.411Z,23.43
2018-01-27T11:54:46.440Z,21.17
2018-01-27T11:57:16.478Z,20.37
2018-01-27T11:59:46.472Z,19.13
2018-01-27T12:02:15.721Z,20.83
2018-01-27T12:04:44.972Z,20.93
2018-01-27T12:07:14.280Z,21.90
2018-01-27T12:09:43.586Z,19.90
2018-01-27T12:12:12.970Z,21.30
2018-01-27T12:14:42.211Z,20.83
2018-01-27T12:17:11.443Z,20.10
2018-01-27T12:19:40.675Z,19.90
2018-01-27T12:22:10.668Z,19.43
2018-01-27T12:24:39.918Z,21.10
2018-01-27T12:27:09.231Z,19.87
2018-01-27T12:29:38.688Z,19.07
2018-01-27T12:32:09.519Z,19.73
2018-01-27T12:34:38.930Z,21.10
2018-01-27T12:37:08.907Z,23.27
2018-01-27T12:39:38.185Z,22.00
2018-01-27T12:42:07.399Z,22.70
2018-01-27T12:44:36.651Z,22.23
2018-01-27T12:47:06.706Z,19.70
2018-01-27T12:49:35.940Z,20.67
2018-01-27T12:52:05.271Z,21.00
2018-01-27T12:54:34.524Z,21.07
2018-01-27T12:57:03.911Z,21.30
2018-01-27T12:59:33.203Z,19.60
2018-01-27T13:02:02.413Z,19.57
2018-01-27T13:04:31.614Z,18.93
2018-01-27T13:07:00.827Z,17.50
2018-01-27T13:09:30.090Z,17.73
2018-01-27T13:11:59.316Z,16.00
2018-01-27T13:14:30.069Z,15.90
2018-01-27T13:16:59.272Z,16.83
2018-01-27T13:19:29.290Z,17.03
2018-01-27T13:21:58.535Z,18.00
2018-01-27T13:24:27.764Z,17.00
2018-01-27T13:26:56.985Z,16.03
2018-01-27T13:29:27.035Z,16.00
2018-01-27T13:31:56.286Z,18.03
2018-01-27T13:34:25.514Z,15.67
2018-01-27T13:36:55.506Z,17.03
2018-01-27T13:39:26.271Z,15.70
2018-01-27T13:41:55.536Z,16.17
2018-01-27T13:44:26.284Z,12.97
2018-01-27T13:46:56.288Z,16.90
2018-01-27T13:49:25.530Z,16.50
2018-01-27T13:51:54.727Z,16.17
2018-01-27T13:54:23.973Z,16.93
2018-01-27T13:56:53.202Z,17.37
2018-01-27T13:59:22.584Z,16.93
2018-01-27T14:01:52.687Z,17.97
2018-01-27T14:04:21.931Z,17.13
2018-01-27T14:06:51.129Z,17.07
2018-01-27T14:09:20.343Z,16.70
2018-01-27T14:11:49.641Z,15.60
2018-01-27T14:14:18.858Z,16.13
2018-01-27T14:16:48.110Z,17.20
2018-01-27T14:19:17.319Z,18.57
2018-01-27T14:21:46.576Z,17.37
2018-01-27T14:24:15.847Z,16.80
2018-01-27T14:26:45.066Z,16.00
2018-01-27T14:29:14.299Z,15.67
2018-01-27T14:31:43.540Z,17.57
2018-01-27T14:34:12.743Z,15.43
2018-01-27T14:36:41.995Z,16.60
2018-01-27T14:39:11.206Z,15.77
2018-01-27T14:41:40.445Z,17.40
2018-01-27T14:44:09.653Z,17.03
2018-01-27T14:46:39.120Z,15.33
2018-01-27T14:49:08.343Z,14.83
2018-01-27T14:51:37.537Z,15.40
2018-01-27T14:54:06.786Z,14.70
2018-01-27T14:56:35.990Z,15.00
2018-01-27T14:59:05.262Z,15.70
2018-01-27T15:01:34.551Z,14.40
2018-01-27T15:04:03.783Z,14.97
2018-01-27T15:06:33.026Z,14.30
2018-01-27T15:09:02.223Z,14.40
2018-01-27T15:11:31.453Z,14.07
2018-01-27T15:14:00.810Z,15.30
2018-01-27T15:16:30.330Z,14.60
2018-01-27T15:18:59.566Z,15.60
2018-01-27T15:21:28.805Z,16.23
2018-01-27T15:23:58.109Z,14.50
2018-01-27T15:26:27.340Z,14.60
2018-01-27T15:28:59.390Z,15.97
2018-01-27T15:31:28.667Z,14.87
2018-01-27T15:33:57.911Z,15.77
2018-01-27T15:36:27.148Z,16.53
2018-01-27T15:38:56.907Z,16.20
2018-01-27T15:41:26.111Z,14.70
2018-01-27T15:43:55.360Z,15.43
2018-01-27T15:46:24.838Z,15.70
2018-01-27T15:48:54.034Z,16.30
2018-01-27T15:51:24.919Z,16.00
2018-01-27T15:53:54.203Z,14.40
2018-01-27T15:56:23.614Z,17.37
2018-01-27T15:58:52.829Z,13.47
2018-01-27T16:01:22.091Z,15.23
2018-01-27T16:03:51.408Z,14.97
2018-01-27T16:06:20.600Z,14.60
2018-01-27T16:08:49.822Z,14.80
2018-01-27T16:11:19.051Z,15.50
2018-01-27T16:13:49.044Z,15.63
2018-01-27T16:16:18.478Z,15.77
2018-01-27T16:18:47.722Z,15.63
2018-01-27T16:21:16.964Z,16.40
2018-01-27T16:23:46.843Z,15.77
2018-01-27T16:26:16.103Z,15.27
2018-01-27T16:28:45.356Z,15.10
2018-01-27T16:31:14.574Z,16.80
2018-01-27T16:33:43.836Z,15.30
2018-01-27T16:36:14.552Z,16.53
2018-01-27T16:38:46.875Z,16.20
2018-01-27T16:41:17.131Z,14.70
2018-01-27T16:43:46.364Z,16.60
2018-01-27T16:46:15.605Z,15.10
2018-01-27T16:48:44.846Z,16.50
2018-01-27T16:51:14.061Z,15.60
2018-01-27T16:53:45.206Z,15.60
2018-01-27T16:56:14.551Z,15.00
2018-01-27T16:58:43.789Z,14.27
2018-01-27T17:01:13.026Z,15.10
2018-01-27T17:03:42.292Z,15.07
2018-01-27T17:06:11.524Z,15.80
2018-01-27T17:08:41.518Z,14.70
2018-01-27T17:11:10.839Z,14.07
2018-01-27T17:13:40.853Z,15.03
2018-01-27T17:16:10.158Z,13.53
2018-01-27T17:18:40.691Z,14.97
2018-01-27T17:21:10.681Z,14.73
2018-01-27T17:23:39.944Z,13.20
2018-01-27T17:26:09.543Z,13.83
2018-01-27T17:28:38.775Z,15.00
2018-01-27T17:31:08.006Z,14.37
2018-01-27T17:33:37.283Z,13.87
2018-01-27T17:36:07.300Z,13.50
2018-01-27T17:38:36.542Z,12.93
2018-01-27T17:41:05.776Z,13.20
2018-01-27T17:43:35.082Z,12.30
2018-01-27T17:46:04.296Z,12.43
2018-01-27T17:48:33.513Z,12.20
2018-01-27T17:51:03.569Z,12.40
2018-01-27T17:53:32.777Z,12.77
2018-01-27T17:56:02.086Z,10.23
2018-01-27T17:58:31.394Z,11.53
2018-01-27T18:01:00.676Z,11.43
2018-01-27T18:03:29.891Z,11.30
2018-01-27T18:05:59.889Z,10.47
2018-01-27T18:08:30.128Z,10.70
2018-01-27T18:10:59.372Z,11.80
2018-01-27T18:13:29.363Z,10.60
2018-01-27T18:15:58.547Z,10.97
2018-01-27T18:18:27.786Z,11.57
2018-01-27T18:20:57.003Z,10.60
2018-01-27T18:23:26.246Z,11.27
2018-01-27T18:25:56.166Z,11.40
2018-01-27T18:28:25.399Z,10.80
2018-01-27T18:30:54.761Z,9.97
2018-01-27T18:33:24.044Z,10.37
2018-01-27T18:35:53.301Z,10.77
2018-01-27T18:38:23.271Z,10.80
2018-01-27T18:40:53.264Z,10.23
2018-01-27T18:43:22.582Z,10.60
2018-01-27T18:45:51.791Z,10.20
2018-01-27T18:48:21.003Z,8.90
2018-01-27T18:50:50.247Z,8.60
2018-01-27T18:53:19.500Z,10.47
2018-01-27T18:55:48.763Z,9.73
2018-01-27T18:58:18.008Z,8.90
2018-01-27T19:00:47.276Z,9.53
2018-01-27T19:03:16.613Z,9.13
2018-01-27T19:05:46.011Z,10.00
2018-01-27T19:08:15.976Z,8.60
2018-01-27T19:10:45.214Z,9.07
2018-01-27T19:13:14.423Z,8.13
2018-01-27T19:15:43.650Z,8.30
2018-01-27T19:18:12.901Z,8.33
2018-01-27T19:20:43.700Z,7.10
2018-01-27T19:23:12.974Z,7.83
2018-01-27T19:25:42.211Z,8.03
2018-01-27T19:28:11.467Z,6.90
2018-01-27T19:30:40.689Z,7.77
2018-01-27T19:33:09.944Z,7.07
2018-01-27T19:35:39.978Z,6.17
2018-01-27T19:38:09.230Z,6.80
2018-01-27T19:40:38.687Z,7.03
2018-01-27T19:43:07.919Z,6.40
2018-01-27T19:45:37.129Z,6.13
2018-01-27T19:48:07.121Z,7.30
2018-01-27T19:50:36.328Z,6.40
2018-01-27T19:53:05.552Z,5.90
2018-01-27T19:55:35.521Z,4.80
2018-01-27T19:58:04.768Z,6.60
2018-01-27T20:00:33.996Z,5.43
2018-01-27T20:03:03.303Z,5.10
2018-01-27T20:05:32.539Z,5.70
2018-01-27T20:08:01.758Z,5.33
2018-01-27T20:10:31.093Z,5.33
2018-01-27T20:13:00.293Z,5.70
2018-01-27T20:15:29.524Z,5.47
2018-01-27T20:17:58.863Z,5.07
2018-01-27T20:20:28.963Z,5.30
2018-01-27T20:22:58.189Z,4.73
2018-01-27T20:25:27.434Z,4.93
2018-01-27T20:27:56.614Z,4.77
2018-01-27T20:30:25.857Z,5.93
2018-01-27T20:32:56.077Z,4.70
2018-01-27T20:35:25.357Z,5.00
2018-01-27T20:37:54.517Z,5.07
2018-01-27T20:40:23.751Z,4.60
2018-01-27T20:42:52.992Z,5.20
2018-01-27T20:45:22.275Z,4.77
2018-01-27T20:47:52.254Z,5.20
2018-01-27T20:50:21.784Z,4.80
2018-01-27T20:52:50.989Z,5.20
2018-01-27T20:55:21.007Z,5.70
2018-01-27T20:57:50.250Z,5.57
2018-01-27T21:00:19.462Z,5.10
2018-01-27T21:02:48.757Z,5.50
2018-01-27T21:05:17.999Z,6.27
2018-01-27T21:07:48.039Z,6.07
2018-01-27T21:10:18.111Z,5.37
2018-01-27T21:12:47.385Z,5.30
2018-01-27T21:15:16.771Z,5.70
2018-01-27T21:17:46.051Z,5.73
2018-01-27T21:20:15.358Z,4.83
2018-01-27T21:22:44.606Z,5.30
2018-01-27T21:25:13.970Z,5.70
2018-01-27T21:27:43.309Z,5.07
2018-01-27T21:30:12.524Z,6.43
2018-01-27T21:32:43.271Z,5.17
2018-01-27T21:35:12.581Z,5.13
2018-01-27T21:37:41.818Z,4.80
2018-01-27T21:40:11.187Z,6.30
2018-01-27T21:42:40.534Z,4.77
2018-01-27T21:45:09.869Z,5.43
2018-01-27T21:47:39.096Z,4.87
2018-01-27T21:50:08.310Z,6.03
2018-01-27T21:52:37.692Z,5.43
2018-01-27T21:55:07.919Z,6.50
2018-01-27T21:57:37.190Z,5.30
2018-01-27T22:00:06.429Z,6.27
2018-01-27T22:02:35.615Z,4.60
2018-01-27T22:05:05.067Z,5.10
2018-01-27T22:07:34.289Z,5.20
2018-01-27T22:10:03.512Z,4.70
2018-01-27T22:12:34.396Z,5.10
2018-01-27T22:15:03.608Z,5.30
2018-01-27T22:17:33.624Z,5.00
2018-01-27T22:20:03.597Z,5.17
2018-01-27T22:22:32.869Z,5.33
2018-01-27T22:25:02.527Z,5.80
2018-01-27T22:27:32.522Z,5.50
2018-01-27T22:30:01.821Z,4.60
2018-01-27T22:32:31.034Z,4.50
2018-01-27T22:35:00.302Z,4.57
2018-01-27T22:37:29.496Z,4.10
2018-01-27T22:39:58.734Z,4.63
2018-01-27T22:42:27.976Z,4.40
2018-01-27T22:44:58.124Z,4.87
2018-01-27T22:47:27.354Z,3.80
2018-01-27T22:49:58.113Z,4.07
2018-01-27T22:52:28.114Z,4.53
2018-01-27T22:54:57.344Z,4.27
2018-01-27T22:57:26.641Z,4.53
2018-01-27T22:59:55.854Z,3.50
2018-01-27T23:02:25.093Z,3.30
2018-01-27T23:04:54.297Z,3.60
2018-01-27T23:07:23.544Z,3.70
2018-01-27T23:09:52.746Z,3.40
2018-01-27T23:12:22.293Z,3.63
2018-01-27T23:14:51.621Z,3.93
2018-01-27T23:17:21.612Z,4.20
2018-01-27T23:19:50.899Z,3.20
2018-01-27T23:22:20.145Z,4.60
2018-01-27T23:24:49.442Z,4.23
2018-01-27T23:27:18.715Z,3.60
2018-01-27T23:29:48.795Z,4.10
2018-01-27T23:32:18.038Z,4.57
2018-01-27T23:34:47.558Z,4.10
2018-01-27T23:37:17.047Z,4.10
2018-01-27T23:39:47.227Z,5.77
2018-01-27T23:42:16.529Z,4.57
2018-01-27T23:44:45.790Z,3.80
2018-01-27T23:47:15.103Z,3.90
2018-01-27T23:49:44.345Z,4.53
2018-01-27T23:52:13.669Z,4.00
2018-01-27T23:54:43.643Z,4.50
2018-01-27T23:57:12.934Z,4.40
2018-01-27T23:59:42.236Z,4.50
